createdAt,value
2023-01-10T00:00:28.492Z,99841.28
2023-01-10T00:02:56.581Z,99845.03
2023-01-10T00:05:23.329Z,99843.47
2023-01-10T00:07:49.973Z,99831.50
2023-01-10T00:10:16.866Z,99834.78
2023-01-10T00:12:43.454Z,99830.91
2023-01-10T00:15:10.904Z,99830.47
2023-01-10T00:17:37.534Z,99825.78
2023-01-10T00:20:06.599Z,99829.94
2023-01-10T00:22:33.207Z,99829.09
2023-01-10T00:24:59.883Z,99838.28
2023-01-10T00:27:26.471Z,99832.41
2023-01-10T00:29:53.356Z,99840.22
2023-01-10T00:32:20.715Z,99835.72
2023-01-10T00:34:47.539Z,99824.47
2023-01-10T00:37:15.602Z,99829.16
2023-01-10T00:39:42.266Z,99816.59
2023-01-10T00:42:10.035Z,99810.06
2023-01-10T00:44:39.532Z,99821.44
2023-01-10T00:47:06.753Z,99818.31
2023-01-10T00:49:33.395Z,99813.06
2023-01-10T00:52:00.116Z,99830.19
2023-01-10T00:54:28.235Z,99838.16
2023-01-10T00:56:54.943Z,99832.28
2023-01-10T00:59:21.872Z,99824.31
2023-01-10T01:01:48.752Z,99824.28
2023-01-10T01:04:15.758Z,99807.91
2023-01-10T01:06:43.990Z,99804.28
2023-01-10T01:09:10.667Z,99794.06
2023-01-10T01:11:38.755Z,99786.34
2023-01-10T01:14:07.456Z,99792.38
2023-01-10T01:16:34.139Z,99799.91
2023-01-10T01:19:00.767Z,99788.09
2023-01-10T01:21:27.392Z,99785.16
2023-01-10T01:23:54.552Z,99784.41
2023-01-10T01:26:21.163Z,99786.19
2023-01-10T01:28:49.281Z,99803.06
2023-01-10T01:31:16.075Z,99803.91
2023-01-10T01:33:42.911Z,99812.47
2023-01-10T01:36:11.085Z,99807.25
2023-01-10T01:38:37.990Z,99811.00
2023-01-10T01:41:07.853Z,99802.44
2023-01-10T01:43:59.673Z,99801.34
2023-01-10T01:46:26.757Z,99814.97
2023-01-10T01:48:55.581Z,99819.50
2023-01-10T01:51:26.922Z,99827.66
2023-01-10T01:53:57.970Z,99812.28
2023-01-10T01:56:29.780Z,99813.94
2023-01-10T01:59:07.209Z,99822.63
2023-01-10T02:01:36.034Z,99805.53
2023-01-10T02:04:10.517Z,99810.44
2023-01-10T02:06:38.035Z,99810.66
2023-01-10T02:09:16.651Z,99809.22
2023-01-10T02:11:43.309Z,99807.13
2023-01-10T02:14:14.033Z,99799.16
2023-01-10T02:16:40.809Z,99796.44
2023-01-10T02:19:16.362Z,99796.00
2023-01-10T02:22:09.174Z,99783.84
2023-01-10T02:25:03.210Z,99783.19
2023-01-10T02:27:41.178Z,99788.91
2023-01-10T02:30:41.697Z,99780.44
2023-01-10T02:33:19.184Z,99775.59
2023-01-10T02:36:01.558Z,99778.09
2023-01-10T02:38:36.537Z,99784.84
2023-01-10T02:41:12.643Z,99800.56
2023-01-10T02:43:45.495Z,99805.81
2023-01-10T02:46:16.913Z,99783.66
2023-01-10T02:48:45.058Z,99780.72
2023-01-10T02:51:18.848Z,99779.25
2023-01-10T02:53:49.309Z,99775.47
2023-01-10T02:56:40.351Z,99772.97
2023-01-10T02:59:32.975Z,99764.16
2023-01-10T03:02:11.052Z,99765.63
2023-01-10T03:04:51.407Z,99766.44
2023-01-10T03:07:24.182Z,99762.25
2023-01-10T03:09:56.155Z,99752.22
2023-01-10T03:12:31.571Z,99740.69
2023-01-10T03:15:00.696Z,99738.56
2023-01-10T03:17:30.271Z,99747.59
2023-01-10T03:20:02.423Z,99742.53
2023-01-10T03:22:31.263Z,99738.34
2023-01-10T03:25:01.034Z,99740.88
2023-01-10T03:27:33.355Z,99737.31
2023-01-10T03:30:06.498Z,99734.38
2023-01-10T03:32:34.199Z,99735.63
2023-01-10T03:35:03.437Z,99741.72
2023-01-10T03:37:37.182Z,99735.59
2023-01-10T03:40:09.387Z,99730.16
2023-01-10T03:42:47.582Z,99726.59
2023-01-10T03:45:15.695Z,99724.06
2023-01-10T03:47:46.740Z,99720.09
2023-01-10T03:50:19.904Z,99720.09
2023-01-10T03:52:46.588Z,99705.63
2023-01-10T03:55:15.678Z,99703.94
2023-01-10T03:57:42.673Z,99711.72
2023-01-10T04:00:10.627Z,99707.09
2023-01-10T04:02:37.426Z,99702.28
2023-01-10T04:05:08.012Z,99695.56
2023-01-10T04:07:36.099Z,99686.34
2023-01-10T04:10:02.982Z,99681.94
2023-01-10T04:12:29.602Z,99678.19
2023-01-10T04:14:56.326Z,99682.16
2023-01-10T04:17:22.999Z,99676.72
2023-01-10T04:19:50.225Z,99672.94
2023-01-10T04:22:16.873Z,99667.06
2023-01-10T04:24:44.937Z,99661.81
2023-01-10T04:27:14.407Z,99674.59
2023-01-10T04:29:41.094Z,99672.50
2023-01-10T04:32:07.830Z,99668.28
2023-01-10T04:34:34.535Z,99668.50
2023-01-10T04:37:01.198Z,99671.22
2023-01-10T04:39:27.894Z,99667.03
2023-01-10T04:41:55.954Z,99664.56
2023-01-10T04:44:22.697Z,99659.47
2023-01-10T04:46:49.345Z,99653.16
2023-01-10T04:49:16.413Z,99650.28
2023-01-10T04:51:43.064Z,99643.13
2023-01-10T04:54:09.753Z,99641.69
2023-01-10T04:56:36.442Z,99631.38
2023-01-10T04:59:04.526Z,99627.44
2023-01-10T05:01:31.270Z,99623.88
2023-01-10T05:03:58.090Z,99605.41
2023-01-10T05:06:25.047Z,99591.16
2023-01-10T05:08:51.728Z,99594.88
2023-01-10T05:11:18.436Z,99599.34
2023-01-10T05:13:47.141Z,99615.06
2023-01-10T05:16:16.428Z,99609.66
2023-01-10T05:18:46.041Z,99605.66
2023-01-10T05:21:13.691Z,99600.03
2023-01-10T05:23:40.894Z,99590.38
2023-01-10T05:26:09.044Z,99582.81
2023-01-10T05:28:35.714Z,99580.31
2023-01-10T05:31:02.792Z,99567.78
2023-01-10T05:33:30.825Z,99573.19
2023-01-10T05:35:59.327Z,99572.78
2023-01-10T05:38:26.027Z,99562.31
2023-01-10T05:40:55.463Z,99559.38
2023-01-10T05:43:22.272Z,99556.63
2023-01-10T05:45:49.082Z,99553.91
2023-01-10T05:48:15.778Z,99562.31
2023-01-10T05:50:43.908Z,99556.44
2023-01-10T05:53:10.834Z,99561.91
2023-01-10T05:55:40.457Z,99546.59
2023-01-10T05:58:07.144Z,99544.69
2023-01-10T06:00:33.831Z,99534.63
2023-01-10T06:03:00.602Z,99524.81
2023-01-10T06:05:27.275Z,99531.06
2023-01-10T06:07:55.297Z,99524.16
2023-01-10T06:10:21.940Z,99517.88
2023-01-10T06:12:48.636Z,99514.94
2023-01-10T06:15:15.719Z,99506.97
2023-01-10T06:17:42.387Z,99488.06
2023-01-10T06:20:10.461Z,99470.50
2023-01-10T06:22:37.121Z,99461.69
2023-01-10T06:25:06.181Z,99448.13
2023-01-10T06:27:32.936Z,99445.22
2023-01-10T06:29:59.587Z,99436.63
2023-01-10T06:32:26.273Z,99444.19
2023-01-10T06:34:53.103Z,99437.06
2023-01-10T06:37:20.327Z,99437.72
2023-01-10T06:39:47.115Z,99416.75
2023-01-10T06:42:15.210Z,99407.69
2023-01-10T06:44:41.875Z,99412.75
2023-01-10T06:47:08.533Z,99399.84
2023-01-10T06:49:35.152Z,99382.22
2023-01-10T06:52:01.755Z,99364.69
2023-01-10T06:54:28.469Z,99369.25
2023-01-10T06:56:55.199Z,99355.88
2023-01-10T06:59:23.245Z,99355.66
2023-01-10T07:01:50.308Z,99352.75
2023-01-10T07:04:17.033Z,99340.59
2023-01-10T07:06:43.714Z,99335.38
2023-01-10T07:09:10.396Z,99327.00
2023-01-10T07:11:37.153Z,99307.16
2023-01-10T07:14:04.055Z,99299.00
2023-01-10T07:16:32.179Z,99292.47
2023-01-10T07:18:59.748Z,99294.81
2023-01-10T07:21:26.695Z,99279.97
2023-01-10T07:23:53.401Z,99265.91
2023-01-10T07:26:20.211Z,99274.66
2023-01-10T07:28:49.194Z,99262.19
2023-01-10T07:31:16.333Z,99257.97
2023-01-10T07:33:44.506Z,99263.81
2023-01-10T07:36:11.242Z,99245.66
2023-01-10T07:38:38.716Z,99236.06
2023-01-10T07:41:05.807Z,99227.03
2023-01-10T07:43:32.975Z,99221.47
2023-01-10T07:45:59.907Z,99220.94
2023-01-10T07:48:26.646Z,99212.16
2023-01-10T07:50:57.787Z,99204.19
2023-01-10T07:53:25.264Z,99189.94
2023-01-10T07:55:51.919Z,99186.69
2023-01-10T07:58:19.322Z,99163.09
2023-01-10T08:00:46.549Z,99155.00
2023-01-10T08:03:13.541Z,99135.06
2023-01-10T08:05:40.950Z,99121.88
2023-01-10T08:08:10.800Z,99119.53
2023-01-10T08:10:39.044Z,99124.75
2023-01-10T08:13:17.774Z,99108.16
2023-01-10T08:15:45.387Z,99106.19
2023-01-10T08:18:12.095Z,99102.94
2023-01-10T08:20:38.727Z,99081.38
2023-01-10T08:23:05.420Z,99083.38
2023-01-10T08:25:33.429Z,99066.66
2023-01-10T08:28:00.106Z,99073.78
2023-01-10T08:30:26.801Z,99068.97
2023-01-10T08:32:53.533Z,99053.16
2023-01-10T08:35:20.207Z,99054.28
2023-01-10T08:37:46.870Z,99043.81
2023-01-10T08:40:13.723Z,99044.53
2023-01-10T08:42:41.740Z,99035.75
2023-01-10T08:45:09.438Z,99038.47
2023-01-10T08:47:36.079Z,99021.91
2023-01-10T08:50:02.817Z,99002.28
2023-01-10T08:52:29.445Z,99013.16
2023-01-10T08:54:56.088Z,98996.66
2023-01-10T08:57:22.742Z,98986.44
2023-01-10T08:59:50.783Z,98989.69
2023-01-10T09:02:17.512Z,98982.69
2023-01-10T09:04:44.213Z,98980.25
2023-01-10T09:07:11.190Z,98971.25
2023-01-10T09:09:37.858Z,98964.66
2023-01-10T09:12:04.903Z,98962.41
2023-01-10T09:14:31.629Z,98960.06
2023-01-10T09:16:59.712Z,98945.47
2023-01-10T09:19:26.354Z,98947.63
2023-01-10T09:21:53.015Z,98950.88
2023-01-10T09:24:19.624Z,98949.84
2023-01-10T09:26:46.277Z,98947.53
2023-01-10T09:29:13.026Z,98937.13
2023-01-10T09:31:39.782Z,98915.94
2023-01-10T09:34:07.846Z,98929.06
2023-01-10T09:36:34.557Z,98931.34
2023-01-10T09:39:01.235Z,98911.44
2023-01-10T09:41:53.740Z,98927.41
2023-01-10T09:44:33.607Z,98919.16
2023-01-10T09:47:21.144Z,98906.22
2023-01-10T09:50:00.127Z,98882.59
2023-01-10T09:52:30.399Z,98879.19
2023-01-10T09:55:00.026Z,98869.63
2023-01-10T09:57:26.989Z,98876.63
2023-01-10T09:59:53.877Z,98860.09
2023-01-10T10:02:29.339Z,98860.22
2023-01-10T10:05:08.502Z,98863.84
2023-01-10T10:07:35.640Z,98859.47
2023-01-10T10:10:02.430Z,98862.06
2023-01-10T10:12:37.882Z,98846.53
2023-01-10T10:15:20.155Z,98827.44
2023-01-10T10:17:57.317Z,98823.09
2023-01-10T10:20:39.600Z,98813.72
2023-01-10T10:23:21.150Z,98797.09
2023-01-10T10:26:00.997Z,98794.31
2023-01-10T10:29:03.889Z,98789.66
2023-01-10T10:32:01.222Z,98795.84
2023-01-10T10:34:31.287Z,98808.31
2023-01-10T10:37:03.524Z,98780.19
2023-01-10T10:39:36.772Z,98776.94
2023-01-10T10:42:10.766Z,98781.78
2023-01-10T10:44:41.793Z,98778.91
2023-01-10T10:47:15.082Z,98782.59
2023-01-10T10:49:47.095Z,98778.44
2023-01-10T10:52:22.791Z,98779.22
2023-01-10T10:54:49.775Z,98790.19
2023-01-10T10:57:16.808Z,98774.94
2023-01-10T10:59:46.496Z,98757.97
2023-01-10T11:02:24.246Z,98766.00
2023-01-10T11:04:54.515Z,98766.25
2023-01-10T11:07:23.380Z,98746.41
2023-01-10T11:09:52.588Z,98741.75
2023-01-10T11:12:25.865Z,98750.25
2023-01-10T11:14:52.608Z,98744.97
2023-01-10T11:17:22.273Z,98735.31
2023-01-10T11:19:56.442Z,98722.22
2023-01-10T11:22:25.426Z,98716.41
2023-01-10T11:24:54.690Z,98716.38
2023-01-10T11:27:24.205Z,98704.28
2023-01-10T11:29:53.059Z,98697.06
2023-01-10T11:32:23.435Z,98684.31
2023-01-10T11:34:53.601Z,98691.34
2023-01-10T11:37:22.714Z,98677.38
2023-01-10T11:40:14.884Z,98684.59
2023-01-10T11:42:42.316Z,98678.84
2023-01-10T11:45:23.575Z,98659.28
2023-01-10T11:47:54.805Z,98669.06
2023-01-10T11:50:24.634Z,98659.22
2023-01-10T11:52:52.050Z,98651.34
2023-01-10T11:55:22.985Z,98662.06
2023-01-10T11:58:02.879Z,98654.47
2023-01-10T12:00:38.227Z,98651.16
2023-01-10T12:03:17.100Z,98634.41
2023-01-10T12:05:51.593Z,98628.28
2023-01-10T12:08:31.340Z,98619.75
2023-01-10T12:11:02.826Z,98611.44
2023-01-10T12:13:30.668Z,98603.75
2023-01-10T12:16:16.685Z,98608.78
2023-01-10T12:18:43.372Z,98616.66
2023-01-10T12:21:13.380Z,98605.41
2023-01-10T12:23:42.180Z,98598.56
2023-01-10T12:26:12.419Z,98596.84
2023-01-10T12:28:43.019Z,98594.78
2023-01-10T12:31:13.843Z,98594.00
2023-01-10T12:33:44.679Z,98584.56
2023-01-10T12:36:21.534Z,98587.56
2023-01-10T12:38:57.573Z,98590.41
2023-01-10T12:41:33.876Z,98579.81
2023-01-10T12:44:02.953Z,98580.22
2023-01-10T12:47:05.292Z,98571.06
2023-01-10T12:49:29.138Z,98571.16
2023-01-10T12:52:00.977Z,98563.69
2023-01-10T12:54:30.302Z,98555.78
2023-01-10T12:57:05.102Z,98555.44
2023-01-10T12:59:38.106Z,98544.47
2023-01-10T13:02:07.172Z,98535.28
2023-01-10T13:04:37.804Z,98529.25
2023-01-10T13:07:05.222Z,98530.47
2023-01-10T13:09:32.994Z,98513.28
2023-01-10T13:12:08.257Z,98499.59
2023-01-10T13:14:42.357Z,98503.63
2023-01-10T13:17:19.995Z,98510.03
2023-01-10T13:20:21.962Z,98500.31
2023-01-10T13:22:50.315Z,98499.53
2023-01-10T13:25:22.818Z,98487.75
2023-01-10T13:27:57.551Z,98491.13
2023-01-10T13:30:28.474Z,98472.19
2023-01-10T13:33:03.040Z,98480.13
2023-01-10T13:35:39.777Z,98477.41
2023-01-10T13:38:16.679Z,98479.06
2023-01-10T13:40:57.194Z,98477.97
2023-01-10T13:43:59.302Z,98471.84
2023-01-10T13:46:46.964Z,98475.50
2023-01-10T13:49:39.615Z,98467.47
2023-01-10T13:52:30.775Z,98463.97
2023-01-10T13:54:58.871Z,98461.47
2023-01-10T13:57:51.937Z,98458.44
2023-01-10T14:00:27.032Z,98460.91
2023-01-10T14:02:53.749Z,98477.97
2023-01-10T14:05:23.316Z,98466.66
2023-01-10T14:07:52.296Z,98458.13
2023-01-10T14:10:22.688Z,98454.56
2023-01-10T14:12:52.523Z,98447.72
2023-01-10T14:15:26.388Z,98440.84
2023-01-10T14:18:05.630Z,98449.31
2023-01-10T14:20:34.920Z,98439.97
2023-01-10T14:23:05.607Z,98443.88
2023-01-10T14:25:34.561Z,98451.81
2023-01-10T14:28:02.300Z,98440.25
2023-01-10T14:30:32.884Z,98444.03
2023-01-10T14:33:07.009Z,98437.50
2023-01-10T14:35:37.906Z,98431.13
2023-01-10T14:38:06.944Z,98437.41
2023-01-10T14:40:38.992Z,98433.28
2023-01-10T14:43:09.480Z,98424.78
2023-01-10T14:45:43.609Z,98421.50
2023-01-10T14:48:28.527Z,98420.41
2023-01-10T14:51:08.354Z,98411.56
2023-01-10T14:53:35.315Z,98411.53
2023-01-10T14:56:02.072Z,98403.69
2023-01-10T14:58:28.831Z,98399.53
2023-01-10T15:00:57.585Z,98381.03
2023-01-10T15:03:25.923Z,98391.03
2023-01-10T15:05:54.578Z,98367.81
2023-01-10T15:08:24.181Z,98368.69
2023-01-10T15:10:54.718Z,98371.38
2023-01-10T15:13:25.029Z,98355.44
2023-01-10T15:15:52.534Z,98359.97
2023-01-10T15:18:30.156Z,98357.75
2023-01-10T15:20:57.919Z,98343.31
2023-01-10T15:23:24.551Z,98351.50
2023-01-10T15:25:56.612Z,98326.75
2023-01-10T15:28:23.386Z,98327.47
2023-01-10T15:30:50.671Z,98323.66
2023-01-10T15:33:21.759Z,98320.50
2023-01-10T15:35:49.990Z,98320.78
2023-01-10T15:38:20.694Z,98314.03
2023-01-10T15:40:55.163Z,98311.28
2023-01-10T15:43:25.200Z,98307.13
2023-01-10T15:45:53.349Z,98311.44
2023-01-10T15:48:28.747Z,98292.19
2023-01-10T15:50:58.455Z,98303.38
2023-01-10T15:53:57.098Z,98308.06
2023-01-10T15:56:27.998Z,98300.84
2023-01-10T15:58:56.630Z,98291.47
2023-01-10T16:01:24.124Z,98299.16
2023-01-10T16:03:53.506Z,98285.41
2023-01-10T16:08:53.148Z,98257.25
2023-01-10T16:11:23.376Z,98279.75
2023-01-10T16:13:50.145Z,98273.47
2023-01-10T16:16:19.739Z,98281.84
2023-01-10T16:18:46.492Z,98281.28
2023-01-10T16:21:13.869Z,98267.19
2023-01-10T16:23:44.119Z,98266.91
2023-01-10T16:26:10.862Z,98257.53
2023-01-10T16:28:37.529Z,98250.19
2023-01-10T16:31:06.768Z,98242.53
2023-01-10T16:33:34.002Z,98240.19
2023-01-10T16:36:01.154Z,98241.72
2023-01-10T16:38:29.185Z,98239.34
2023-01-10T16:40:59.952Z,98232.88
2023-01-10T16:43:27.119Z,98229.06
2023-01-10T16:45:55.238Z,98236.31
2023-01-10T16:48:22.414Z,98223.75
2023-01-10T16:50:49.215Z,98220.22
2023-01-10T16:53:17.696Z,98209.78
2023-01-10T16:55:46.162Z,98213.78
2023-01-10T16:58:15.490Z,98196.31
2023-01-10T17:00:44.877Z,98193.59
2023-01-10T17:03:14.849Z,98201.53
2023-01-10T17:05:42.008Z,98194.38
2023-01-10T17:08:15.614Z,98195.34
2023-01-10T17:10:43.216Z,98195.09
2023-01-10T17:13:12.182Z,98182.44
2023-01-10T17:15:40.260Z,98180.63
2023-01-10T17:18:07.027Z,98173.66
2023-01-10T17:20:33.704Z,98174.34
2023-01-10T17:23:00.328Z,98168.78
2023-01-10T17:25:26.971Z,98176.69
2023-01-10T17:27:53.592Z,98167.28
2023-01-10T17:30:20.383Z,98171.97
2023-01-10T17:32:48.427Z,98164.13
2023-01-10T17:35:15.081Z,98152.50
2023-01-10T17:37:41.830Z,98148.03
2023-01-10T17:40:10.385Z,98146.78
2023-01-10T17:42:37.025Z,98140.91
2023-01-10T17:45:04.310Z,98147.66
2023-01-10T17:47:31.026Z,98145.63
2023-01-10T17:49:59.074Z,98144.03
2023-01-10T17:52:25.747Z,98128.38
2023-01-10T17:54:52.429Z,98126.47
2023-01-10T17:57:19.157Z,98120.31
2023-01-10T17:59:45.779Z,98137.06
2023-01-10T18:02:17.313Z,98131.88
2023-01-10T18:04:44.579Z,98132.38
2023-01-10T18:07:13.165Z,98118.50
2023-01-10T18:09:40.204Z,98123.00
2023-01-10T18:12:07.142Z,98116.69
2023-01-10T18:14:33.885Z,98110.88
2023-01-10T18:17:00.593Z,98117.88
2023-01-10T18:19:27.463Z,98109.28
2023-01-10T18:21:54.103Z,98106.78
2023-01-10T18:24:22.164Z,98107.63
2023-01-10T18:26:49.098Z,98104.66
2023-01-10T18:29:15.717Z,98112.09
2023-01-10T18:31:42.436Z,98107.81
2023-01-10T18:34:09.449Z,98109.75
2023-01-10T18:36:36.165Z,98110.81
2023-01-10T18:39:03.088Z,98106.72
2023-01-10T18:41:31.388Z,98107.00
2023-01-10T18:43:58.027Z,98114.09
2023-01-10T18:46:24.779Z,98113.53
2023-01-10T18:48:52.267Z,98120.50
2023-01-10T18:51:18.928Z,98128.38
2023-01-10T18:53:46.024Z,98129.59
2023-01-10T18:56:12.697Z,98119.09
2023-01-10T18:58:42.088Z,98133.16
2023-01-10T19:01:11.278Z,98149.50
2023-01-10T19:03:39.018Z,98139.97
2023-01-10T19:06:07.881Z,98179.75
2023-01-10T19:08:34.773Z,98179.75
2023-01-10T19:11:13.334Z,98172.63
2023-01-10T19:13:43.176Z,98197.84
2023-01-10T19:16:12.094Z,98207.72
2023-01-10T19:18:38.867Z,98227.47
2023-01-10T19:21:05.749Z,98222.19
2023-01-10T19:23:33.001Z,98238.97
2023-01-10T19:25:59.852Z,98250.53
2023-01-10T19:28:29.553Z,98259.84
2023-01-10T19:31:05.386Z,98260.97
2023-01-10T19:33:32.394Z,98257.94
2023-01-10T19:35:59.066Z,98278.00
2023-01-10T19:38:25.787Z,98312.31
2023-01-10T19:40:53.100Z,98349.91
2023-01-10T19:43:19.849Z,98358.41
2023-01-10T19:45:48.201Z,98364.75
2023-01-10T19:48:16.396Z,98370.78
2023-01-10T19:50:43.058Z,98358.31
2023-01-10T19:53:09.771Z,98376.16
2023-01-10T19:55:36.431Z,98375.44
2023-01-10T19:58:03.096Z,98384.97
2023-01-10T20:00:30.081Z,98397.75
2023-01-10T20:02:56.865Z,98393.91
2023-01-10T20:05:24.922Z,98396.41
2023-01-10T20:07:51.964Z,98393.44
2023-01-10T20:10:19.015Z,98408.63
2023-01-10T20:12:45.756Z,98421.56
2023-01-10T20:15:12.563Z,98410.31
2023-01-10T20:17:39.235Z,98413.06
2023-01-10T20:20:06.548Z,98421.84
2023-01-10T20:22:34.576Z,98419.69
2023-01-10T20:25:01.331Z,98423.50
2023-01-10T20:27:28.855Z,98422.16
2023-01-10T20:29:55.549Z,98429.84
2023-01-10T20:32:22.318Z,98447.69
2023-01-10T20:34:48.971Z,98463.06
2023-01-10T20:37:15.639Z,98460.03
2023-01-10T20:39:43.694Z,98466.28
2023-01-10T20:42:10.332Z,98472.28
2023-01-10T20:44:37.034Z,98478.25
2023-01-10T20:47:03.725Z,98479.66
2023-01-10T20:49:30.412Z,98481.94
2023-01-10T20:51:57.064Z,98493.84
2023-01-10T20:54:23.724Z,98501.53
2023-01-10T20:56:51.712Z,98503.13
2023-01-10T20:59:18.357Z,98511.13
2023-01-10T21:01:45.116Z,98513.16
2023-01-10T21:04:11.806Z,98517.34
2023-01-10T21:06:38.473Z,98529.56
2023-01-10T21:09:05.846Z,98532.56
2023-01-10T21:11:41.063Z,98540.75
2023-01-10T21:14:15.716Z,98547.38
2023-01-10T21:16:42.368Z,98554.91
2023-01-10T21:19:09.002Z,98563.44
2023-01-10T21:21:35.608Z,98559.66
2023-01-10T21:24:02.294Z,98569.75
2023-01-10T21:26:28.931Z,98573.97
2023-01-10T21:28:55.571Z,98573.00
2023-01-10T21:31:23.596Z,98576.59
2023-01-10T21:33:50.303Z,98577.41
2023-01-10T21:36:17.563Z,98583.59
2023-01-10T21:38:44.259Z,98578.88
2023-01-10T21:41:13.030Z,98584.25
2023-01-10T21:43:41.013Z,98591.69
2023-01-10T21:46:09.097Z,98598.66
2023-01-10T21:48:37.105Z,98591.09
2023-01-10T21:51:03.920Z,98593.72
2023-01-10T21:53:30.605Z,98604.91
2023-01-10T21:55:58.087Z,98601.00
2023-01-10T21:58:24.820Z,98614.25
2023-01-10T22:00:55.171Z,98619.50
2023-01-10T22:03:21.912Z,98626.28
2023-01-10T22:05:50.028Z,98621.34
2023-01-10T22:08:16.723Z,98626.19
2023-01-10T22:10:43.372Z,98638.06
2023-01-10T22:13:10.050Z,98639.63
2023-01-10T22:15:36.981Z,98644.66
2023-01-10T22:18:03.939Z,98640.78
2023-01-10T22:20:30.970Z,98652.84
2023-01-10T22:22:59.169Z,98660.19
2023-01-10T22:25:25.826Z,98660.31
2023-01-10T22:27:52.610Z,98677.13
2023-01-10T22:30:19.484Z,98671.78
2023-01-10T22:32:46.191Z,98680.75
2023-01-10T22:35:12.958Z,98678.16
2023-01-10T22:37:39.711Z,98681.53
2023-01-10T22:40:09.385Z,98681.44
2023-01-10T22:42:36.122Z,98687.75
2023-01-10T22:45:02.926Z,98689.72
2023-01-10T22:47:29.569Z,98691.16
2023-01-10T22:49:56.262Z,98690.19
2023-01-10T22:52:22.931Z,98686.00
2023-01-10T22:54:49.694Z,98690.66
2023-01-10T22:57:17.782Z,98705.66
2023-01-10T22:59:44.419Z,98705.41
2023-01-10T23:02:11.098Z,98707.31
2023-01-10T23:04:37.785Z,98704.91
2023-01-10T23:07:04.471Z,98711.09
2023-01-10T23:09:31.201Z,98723.03
2023-01-10T23:11:58.012Z,98719.63
2023-01-10T23:14:26.266Z,98725.59
2023-01-10T23:16:52.988Z,98730.13
2023-01-10T23:19:19.693Z,98735.72
2023-01-10T23:21:46.439Z,98744.56
2023-01-10T23:24:13.148Z,98750.00
2023-01-10T23:26:39.869Z,98762.84
2023-01-10T23:29:06.525Z,98761.94
2023-01-10T23:31:34.565Z,98775.75
2023-01-10T23:34:01.299Z,98782.88
2023-01-10T23:36:28.018Z,98799.84
2023-01-10T23:38:54.688Z,98795.13
2023-01-10T23:41:21.482Z,98805.94
2023-01-10T23:43:49.054Z,98803.41
2023-01-10T23:46:16.249Z,98810.09
2023-01-10T23:48:44.431Z,98816.78
2023-01-10T23:51:11.192Z,98821.03
2023-01-10T23:53:37.877Z,98825.78
2023-01-10T23:56:09.540Z,98833.41
2023-01-10T23:58:36.561Z,98836.34
